Time;durP1;ratioP1;P1;durP2;ratioP2;P2;SDS_P1;SDS_P2;PMS_P1;PMS_P2;Temp;Humidity;BMP_temperature;BMP_pressure;BME280_temperature;BME280_humidity;BME280_pressure;Samples;Min_cycle;Max_cycle;Signal;HPM_P1;HPM_P2
2021/04/16 00:00:34;;;;;;;9.35;7.63;;;;;;;4.00;51.81;95232.59;5258203;22;20037;-82
2021/04/16 00:09:20;;;;;;;9.75;7.35;;;;;;;3.93;51.52;95218.84;5213934;22;20091;-81
2021/04/16 00:11:45;;;;;;;8.10;7.30;;;;;;;3.95;51.65;95216.91;5035646;28;20039;-81
2021/04/16 00:16:46;;;;;;;9.82;7.43;;;;;;;4.01;51.44;95221.31;5263573;22;20052;-81
2021/04/16 00:19:27;;;;;;;12.07;7.80;;;;;;;4.00;51.38;95227.44;5035596;28;20033;-79
2021/04/16 00:21:52;;;;;;;11.75;7.55;;;;;;;3.99;51.57;95215.53;5052090;28;20021;-81
2021/04/16 00:24:50;;;;;;;10.65;7.03;;;;;;;3.92;51.80;95217.25;5140212;22;20049;-82
2021/04/16 00:27:17;;;;;;;12.55;7.22;;;;;;;3.84;51.40;95207.06;5059468;28;20029;-82
2021/04/16 00:29:43;;;;;;;7.82;6.95;;;;;;;3.86;51.74;95203.31;5067474;28;20021;-81
2021/04/16 00:32:08;;;;;;;10.65;7.50;;;;;;;3.96;51.60;95215.13;5067689;28;20025;-82
2021/04/16 00:34:34;;;;;;;8.35;7.55;;;;;;;3.97;51.53;95214.13;5063349;28;20029;-81
2021/04/16 00:42:56;;;;;;;13.15;7.22;;;;;;;3.90;51.61;95219.19;5482677;22;20049;-81
2021/04/16 00:45:22;;;;;;;14.23;8.82;;;;;;;3.90;51.75;95214.88;5044285;28;20033;-81
2021/04/16 00:48:35;;;;;;;13.43;7.82;;;;;;;3.96;51.48;95233.13;5041179;28;20032;-81
2021/04/16 00:51:27;;;;;;;14.35;7.95;;;;;;;3.85;51.63;95231.81;5059304;28;20048;-80
2021/04/16 00:57:20;;;;;;;16.20;8.38;;;;;;;3.75;51.92;95221.00;5049717;28;20095;-82
2021/04/16 01:03:16;;;;;;;12.48;8.00;;;;;;;3.80;51.39;95216.13;5034941;28;20043;-82
2021/04/16 01:06:24;;;;;;;10.80;7.15;;;;;;;3.84;51.28;95199.34;5055986;28;20037;-81
2021/04/16 01:08:56;;;;;;;12.43;8.63;;;;;;;3.81;50.80;95194.56;4977950;28;20140;-82
2021/04/16 01:11:21;;;;;;;15.02;9.50;;;;;;;3.85;51.20;95206.09;4984785;28;20379;-81
2021/04/16 01:14:09;;;;;;;12.18;7.65;;;;;;;3.93;50.78;95213.72;5025534;28;20033;-81
2021/04/16 01:24:51;;;;;;;16.70;8.57;;;;;;;3.96;50.42;95202.25;4979406;28;20042;-81
2021/04/16 01:27:39;;;;;;;16.42;7.90;;;;;;;3.92;50.35;95217.25;5029305;23;20065;-81
2021/04/16 01:35:54;;;;;;;;;;;;;;;;;;;;;
2021/04/16 01:44:04;;;;;;;11.43;7.78;;;;;;;3.87;50.59;95217.78;5004546;28;20056;-80
2021/04/16 01:46:29;;;;;;;11.50;8.57;;;;;;;3.91;50.30;95223.38;5037212;28;20120;-82
2021/04/16 01:48:56;;;;;;;8.45;6.97;;;;;;;3.93;49.92;95224.00;5037466;28;20044;-82
2021/04/16 01:51:43;;;;;;;7.65;6.72;;;;;;;3.91;50.14;95221.63;5037746;28;20035;-81
2021/04/16 01:54:53;;;;;;;;;;;;;;;;;;;;;
2021/04/16 01:57:21;;;;;;;10.48;6.95;;;;;;;3.83;50.01;95192.59;5036959;28;20564;-82
2021/04/16 01:59:47;;;;;;;8.27;7.20;;;;;;;3.91;49.71;95206.19;5037037;28;20040;-82
2021/04/16 02:05:33;;;;;;;7.82;7.00;;;;;;;3.89;49.77;95202.97;5338592;22;20057;-81
2021/04/16 02:11:21;;;;;;;12.75;8.32;;;;;;;3.92;49.62;95194.91;5437873;22;20056;-80
2021/04/16 02:21:34;;;;;;;14.32;7.78;;;;;;;3.77;49.97;95206.19;5169502;22;20045;-82
2021/04/16 02:24:26;;;;;;;13.65;8.70;;;;;;;3.86;50.32;95215.38;5036633;28;20045;-82
2021/04/16 02:26:55;;;;;;;12.48;7.80;;;;;;;3.73;50.35;95197.22;5038507;28;20493;-82
2021/04/16 02:29:21;;;;;;;8.48;7.38;;;;;;;3.78;50.40;95215.50;5055196;28;20027;-81
2021/04/16 02:31:56;;;;;;;9.18;6.47;;;;;;;3.70;50.67;95207.88;5034210;28;20033;-81
2021/04/16 02:34:39;;;;;;;11.73;7.20;;;;;;;3.65;50.86;95205.06;5033665;28;20047;-80
2021/04/16 02:37:12;;;;;;;11.57;6.75;;;;;;;3.64;51.10;95219.69;5050915;28;20059;-80
2021/04/16 02:45:37;;;;;;;12.32;7.38;;;;;;;3.53;50.98;95202.94;5344159;22;20056;-81
2021/04/16 02:53:34;;;;;;;10.90;8.70;;;;;;;3.58;51.71;95221.22;5002244;28;20040;-81
2021/04/16 02:56:00;;;;;;;14.02;10.45;;;;;;;3.63;51.95;95225.00;5070258;22;20029;-81
2021/04/16 02:58:29;;;;;;;15.80;8.85;;;;;;;3.60;51.74;95224.41;5047477;28;20424;-80
2021/04/16 03:01:44;;;;;;;11.93;8.02;;;;;;;3.57;51.50;95217.00;5024514;28;20220;-81
2021/04/16 03:06:43;;;;;;;15.68;10.35;;;;;;;3.69;52.14;95222.50;5043728;28;20057;-81
2021/04/16 03:09:09;;;;;;;17.70;11.55;;;;;;;3.73;51.77;95222.94;5044896;28;20393;-81
2021/04/16 03:22:00;;;;;;;15.38;8.25;;;;;;;3.73;51.45;95213.44;5351655;22;20048;-79
2021/04/16 03:24:31;;;;;;;12.32;8.80;;;;;;;3.77;51.34;95216.50;5059229;28;20036;-80
2021/04/16 03:26:57;;;;;;;19.23;9.48;;;;;;;3.81;50.92;95230.56;5129306;22;20025;-79
2021/04/16 03:34:39;;;;;;;18.50;10.05;;;;;;;3.83;51.00;95229.41;5044507;22;20045;-79
2021/04/16 03:37:04;;;;;;;17.42;8.77;;;;;;;3.89;50.95;95236.41;5036597;28;20780;-79
2021/04/16 03:39:44;;;;;;;18.33;8.23;;;;;;;3.89;50.61;95222.75;5052822;28;20150;-79
2021/04/16 03:42:10;;;;;;;15.48;8.48;;;;;;;3.99;50.86;95236.13;5047586;28;20041;-79
2021/04/16 03:44:35;;;;;;;18.50;11.40;;;;;;;4.03;51.04;95234.78;5046373;28;20060;-78
2021/04/16 03:47:01;;;;;;;19.15;10.20;;;;;;;4.02;50.52;95233.19;5045810;28;20035;-79
2021/04/16 03:49:26;;;;;;;18.70;8.43;;;;;;;4.03;50.51;95234.78;5050738;28;20696;-79
2021/04/16 03:51:57;;;;;;;15.10;7.93;;;;;;;4.08;50.59;95245.34;5124923;22;20033;-82
2021/04/16 03:54:23;;;;;;;16.30;8.13;;;;;;;4.19;50.16;95242.28;5059884;28;20024;-80
2021/04/16 03:56:49;;;;;;;16.45;9.13;;;;;;;4.31;49.62;95246.97;5061688;28;20070;-82
2021/04/16 03:59:15;;;;;;;19.63;11.27;;;;;;;4.42;49.28;95249.88;5037175;28;20074;-82
2021/04/16 04:01:41;;;;;;;42.10;15.43;;;;;;;4.58;49.15;95248.06;5051603;28;20033;-78
2021/04/16 04:04:07;;;;;;;45.03;19.63;;;;;;;4.79;48.49;95253.19;5035040;28;20032;-80
2021/04/16 04:06:32;;;;;;;49.10;24.48;;;;;;;4.99;47.94;95251.56;5035243;28;20025;-83
2021/04/16 04:09:01;;;;;;;33.75;19.17;;;;;;;5.37;47.80;95249.50;5030560;28;20512;-80
2021/04/16 04:11:27;;;;;;;30.45;17.65;;;;;;;5.78;46.01;95253.88;5060695;28;20048;-84
2021/04/16 04:13:53;;;;;;;33.58;15.88;;;;;;;6.37;44.79;95248.19;5062945;28;20048;-84
2021/04/16 04:16:18;;;;;;;27.35;13.88;;;;;;;7.23;43.10;95248.28;5059514;28;20059;-84
2021/04/16 04:18:44;;;;;;;21.85;11.93;;;;;;;8.28;40.61;95249.81;5037712;28;20025;-79
2021/04/16 04:21:09;;;;;;;33.22;15.10;;;;;;;9.36;38.23;95249.72;5052657;28;20028;-82
2021/04/16 04:23:35;;;;;;;22.15;12.73;;;;;;;10.29;36.38;95247.00;5030916;28;20661;-82
2021/04/16 04:26:00;;;;;;;17.10;11.45;;;;;;;11.59;33.60;95241.06;5052790;28;20025;-83
2021/04/16 04:28:26;;;;;;;24.35;12.48;;;;;;;12.84;31.77;95243.00;5052617;28;20037;-84
2021/04/16 04:30:55;;;;;;;40.72;15.93;;;;;;;13.90;30.03;95246.50;5029163;28;20057;-88
2021/04/16 04:33:21;;;;;;;42.47;17.00;;;;;;;14.57;28.59;95245.50;5037964;28;20063;-80
2021/04/16 04:35:46;;;;;;;30.65;14.05;;;;;;;15.79;27.39;95252.59;5057684;28;20033;-84
2021/04/16 04:38:12;;;;;;;36.00;15.85;;;;;;;16.70;26.07;95236.47;5052430;28;20033;-86
2021/04/16 04:40:37;;;;;;;29.88;17.17;;;;;;;17.74;24.19;95249.44;5037561;28;20033;-86
2021/04/16 04:43:04;;;;;;;20.10;10.57;;;;;;;18.65;22.80;95233.34;5020077;28;20500;-86
2021/04/16 04:45:29;;;;;;;16.55;9.25;;;;;;;19.12;21.82;95232.78;5020856;28;20496;-86
2021/04/16 04:47:55;;;;;;;12.65;7.72;;;;;;;20.11;21.21;95243.00;5037497;28;20041;-85
2021/04/16 04:50:21;;;;;;;15.93;8.40;;;;;;;21.00;20.21;95242.44;5028810;23;20056;-86
2021/04/16 04:52:47;;;;;;;17.95;7.65;;;;;;;21.20;19.63;95247.44;5060978;28;20028;-86
2021/04/16 04:55:18;;;;;;;14.43;8.15;;;;;;;22.32;18.74;95256.16;5068807;28;20032;-86
2021/04/16 04:57:44;;;;;;;13.73;7.88;;;;;;;23.12;17.86;95258.22;5052451;28;20111;-86
2021/04/16 05:00:13;;;;;;;14.52;8.07;;;;;;;23.87;16.83;95251.41;5048036;28;20041;-86
2021/04/16 05:02:39;;;;;;;13.20;7.65;;;;;;;24.53;16.58;95258.41;5042344;28;20111;-86
2021/04/16 05:05:05;;;;;;;9.20;6.75;;;;;;;25.06;15.81;95254.78;5053470;28;20415;-86
2021/04/16 05:07:43;;;;;;;16.02;7.88;;;;;;;25.60;15.55;95257.09;5052281;28;20036;-86
2021/04/16 05:10:08;;;;;;;20.65;7.53;;;;;;;25.73;15.51;95259.63;5070525;28;20122;-86
2021/04/16 05:12:35;;;;;;;18.10;7.60;;;;;;;26.14;14.93;95252.91;5031371;28;20036;-86
2021/04/16 05:15:01;;;;;;;9.00;6.82;;;;;;;26.23;14.59;95259.00;5046121;28;20119;-85
2021/04/16 05:17:27;;;;;;;9.35;6.47;;;;;;;26.50;14.47;95260.44;5033593;28;20115;-86
2021/04/16 05:19:52;;;;;;;9.90;5.85;;;;;;;26.92;14.33;95263.97;5048295;28;20067;-85
2021/04/16 05:22:18;;;;;;;11.70;6.60;;;;;;;27.57;14.00;95267.13;5047138;28;20037;-87
2021/04/16 05:24:43;;;;;;;11.68;7.40;;;;;;;28.08;13.65;95265.06;5068590;28;20093;-86
2021/04/16 05:27:11;;;;;;;15.55;7.35;;;;;;;28.76;12.53;95264.53;5051471;28;20028;-85
2021/04/16 05:29:36;;;;;;;20.35;8.90;;;;;;;29.34;12.71;95267.81;5073447;28;20039;-85
2021/04/16 05:32:02;;;;;;;10.18;6.75;;;;;;;29.84;12.29;95264.59;5052630;28;20561;-87
2021/04/16 05:34:28;;;;;;;9.77;5.97;;;;;;;29.08;12.06;95268.97;5068809;28;20089;-85
2021/04/16 05:36:54;;;;;;;7.13;5.70;;;;;;;29.32;12.31;95262.78;5051295;28;20073;-87
2021/04/16 05:41:52;;;;;;;10.05;6.78;;;;;;;29.59;12.03;95261.25;5064037;28;20055;-85
2021/04/16 05:44:19;;;;;;;13.15;5.55;;;;;;;29.51;12.04;95270.22;5058258;28;20056;-85
2021/04/16 05:46:44;;;;;;;12.38;6.70;;;;;;;29.75;11.73;95264.75;5062789;28;20032;-85
2021/04/16 05:49:10;;;;;;;18.13;7.50;;;;;;;29.65;11.76;95267.16;5068339;28;20029;-85
2021/04/16 05:51:36;;;;;;;8.85;5.68;;;;;;;29.44;11.75;95264.63;5051558;28;20033;-87
2021/04/16 05:54:02;;;;;;;19.25;9.27;;;;;;;28.70;12.16;95264.00;5049069;28;20032;-87
2021/04/16 05:56:28;;;;;;;9.32;5.78;;;;;;;27.47;13.03;95252.25;5048150;28;20056;-87
2021/04/16 05:58:54;;;;;;;4.97;4.50;;;;;;;25.86;14.30;95255.19;5032987;28;20035;-88
2021/04/16 06:01:19;;;;;;;7.97;5.25;;;;;;;24.54;15.11;95264.50;5049995;28;20106;-87
2021/04/16 06:03:45;;;;;;;8.20;5.93;;;;;;;23.97;15.94;95261.75;5051874;28;20044;-86
2021/04/16 06:06:11;;;;;;;31.23;11.88;;;;;;;23.71;16.52;95264.28;5050820;28;20036;-87
2021/04/16 06:08:40;;;;;;;22.73;9.35;;;;;;;23.51;16.49;95264.75;5077958;28;20255;-85
2021/04/16 06:11:06;;;;;;;9.00;6.65;;;;;;;23.01;16.68;95262.97;5046798;28;20025;-85
2021/04/16 06:13:32;;;;;;;8.98;6.65;;;;;;;22.13;17.24;95254.38;5061261;28;20050;-85
2021/04/16 06:16:00;;;;;;;17.23;6.80;;;;;;;21.02;18.54;95250.88;5077435;28;20067;-85
2021/04/16 06:18:32;;;;;;;8.52;4.60;;;;;;;19.41;19.38;95255.78;5076225;28;20024;-88
2021/04/16 06:20:57;;;;;;;13.52;5.38;;;;;;;18.18;21.14;95260.09;5078345;28;20032;-86
2021/04/16 06:23:22;;;;;;;8.32;5.97;;;;;;;17.51;22.13;95259.41;5058845;28;20033;-86
2021/04/16 06:25:48;;;;;;;7.03;5.95;;;;;;;17.06;23.42;95262.78;5066234;28;20020;-89
2021/04/16 06:28:14;;;;;;;31.35;12.25;;;;;;;16.94;23.23;95262.25;5032118;28;20029;-82
2021/04/16 06:30:42;;;;;;;23.98;9.68;;;;;;;16.73;23.55;95259.56;5057252;28;20432;-84
2021/04/16 06:33:17;;;;;;;26.88;9.60;;;;;;;16.39;24.34;95253.13;5180576;22;20045;-84
2021/04/16 06:35:47;;;;;;;15.98;9.23;;;;;;;15.71;24.45;95244.41;5070446;28;20067;-83
2021/04/16 06:38:24;;;;;;;11.45;7.68;;;;;;;15.51;25.15;95256.31;5038388;28;20040;-83
2021/04/16 06:40:50;;;;;;;10.02;6.38;;;;;;;14.93;25.95;95255.28;5024735;28;20040;-83
2021/04/16 06:43:17;;;;;;;10.38;6.05;;;;;;;14.48;26.18;95270.50;5042694;28;20037;-83
2021/04/16 06:48:10;;;;;;;7.47;5.97;;;;;;;13.10;28.05;95259.91;5130396;22;20077;-84
2021/04/16 06:50:40;;;;;;;7.72;6.70;;;;;;;12.38;28.87;95276.13;5034071;28;20501;-83
2021/04/16 06:53:14;;;;;;;6.60;6.03;;;;;;;11.95;29.15;95266.91;5044272;28;20030;-84
2021/04/16 06:56:07;;;;;;;11.73;7.15;;;;;;;11.74;29.94;95264.84;5042836;28;20065;-84
2021/04/16 06:58:55;;;;;;;;;;;;;;;11.90;30.25;95263.41;5047988;23;20037;-84
2021/04/16 07:01:46;;;;;;;7.40;6.57;;;;;;;11.84;30.27;95256.47;5050431;28;19921;-84
2021/04/16 07:04:17;;;;;;;12.73;6.35;;;;;;;12.27;30.53;95264.69;5022439;28;20457;-84
2021/04/16 07:06:43;;;;;;;12.82;7.07;;;;;;;12.67;30.08;95260.47;5036913;28;20398;-84
2021/04/16 07:09:17;;;;;;;9.00;6.53;;;;;;;12.66;29.48;95267.50;5896163;22;20041;-84
2021/04/16 07:11:47;;;;;;;12.90;6.35;;;;;;;11.98;30.33;95261.22;5040945;28;20065;-84
2021/04/16 07:14:23;;;;;;;12.13;6.35;;;;;;;11.45;31.43;95276.16;5060409;28;20116;-84
2021/04/16 07:16:48;;;;;;;10.80;5.97;;;;;;;11.00;32.05;95276.66;5026824;28;20571;-84
2021/04/16 07:19:15;;;;;;;8.73;6.57;;;;;;;10.70;33.76;95279.25;5023937;28;20033;-84
2021/04/16 07:21:41;;;;;;;6.80;6.20;;;;;;;10.41;32.99;95275.63;5008297;28;20069;-84
2021/04/16 07:24:07;;;;;;;14.23;7.63;;;;;;;10.23;34.19;95282.44;5025142;28;20117;-84
2021/04/16 07:26:46;;;;;;;8.98;8.02;;;;;;;10.50;33.75;95276.94;5004548;28;20571;-84
2021/04/16 07:29:54;;;;;;;10.85;6.38;;;;;;;10.64;33.81;95264.56;5038189;28;20125;-84
2021/04/16 07:32:25;;;;;;;8.80;6.93;;;;;;;10.62;32.61;95263.97;5056062;28;20415;-84
2021/04/16 07:34:50;;;;;;;8.82;6.32;;;;;;;10.52;33.66;95272.28;5037860;28;20040;-84
2021/04/16 07:37:27;;;;;;;10.98;7.07;;;;;;;10.35;34.14;95264.31;5037580;28;20033;-84
2021/04/16 07:40:05;;;;;;;10.63;7.30;;;;;;;10.31;33.82;95280.56;5011715;28;20116;-85
2021/04/16 07:42:44;;;;;;;8.35;5.78;;;;;;;10.47;32.86;95272.16;5005501;28;20114;-83
2021/04/16 07:45:22;;;;;;;9.35;6.38;;;;;;;10.61;33.25;95280.59;5037395;28;20120;-84
2021/04/16 07:47:49;;;;;;;11.75;7.45;;;;;;;10.86;32.52;95275.25;5054811;28;20037;-83
2021/04/16 07:50:41;;;;;;;9.02;5.30;;;;;;;10.94;32.58;95273.13;5022837;28;20504;-83
2021/04/16 07:53:39;;;;;;;11.68;6.45;;;;;;;11.32;31.65;95285.78;5056092;28;20029;-83
2021/04/16 07:56:18;;;;;;;7.72;5.93;;;;;;;11.50;30.79;95274.47;5056807;28;20032;-84
2021/04/16 07:59:04;;;;;;;21.88;7.00;;;;;;;11.58;30.59;95278.56;5066855;28;20056;-81
2021/04/16 08:01:32;;;;;;;8.85;6.05;;;;;;;11.53;30.69;95279.22;5054147;28;20028;-82
2021/04/16 08:04:20;;;;;;;10.15;5.68;;;;;;;11.62;30.49;95282.28;5019951;28;20083;-82
2021/04/16 08:06:47;;;;;;;6.57;5.57;;;;;;;11.71;30.05;95284.34;5019389;28;20033;-82
2021/04/16 08:09:24;;;;;;;6.68;5.13;;;;;;;11.43;29.28;95273.78;5053076;28;20507;-83
2021/04/16 08:11:50;;;;;;;5.43;4.95;;;;;;;10.90;29.70;95284.19;5053873;28;20115;-83
2021/04/16 08:14:23;;;;;;;6.53;4.80;;;;;;;10.60;31.69;95279.81;5035932;28;20056;-80
2021/04/16 08:17:03;;;;;;;4.88;4.50;;;;;;;10.43;31.12;95271.81;5053390;28;20033;-83
2021/04/16 08:19:31;;;;;;;6.70;5.00;;;;;;;10.16;32.22;95281.69;5003227;28;20025;-83
2021/04/16 08:22:04;;;;;;;6.70;4.82;;;;;;;10.21;31.73;95274.06;5019628;28;20127;-83
2021/04/16 08:25:02;;;;;;;6.43;5.10;;;;;;;9.86;33.20;95283.41;5037332;28;20814;-84
2021/04/16 08:27:32;;;;;;;10.68;5.25;;;;;;;10.00;33.48;95290.06;5031914;28;20079;-83
2021/04/16 08:30:29;;;;;;;6.13;5.03;;;;;;;10.01;32.61;95283.84;5025711;28;20033;-83
2021/04/16 08:33:23;;;;;;;12.68;6.15;;;;;;;10.21;31.97;95281.84;5592458;22;20019;-83
2021/04/16 08:36:17;;;;;;;5.95;5.18;;;;;;;10.39;31.78;95286.25;5036754;28;20052;-79
2021/04/16 08:38:58;;;;;;;6.30;4.90;;;;;;;10.51;31.39;95273.31;5038529;28;20034;-82
2021/04/16 08:41:24;;;;;;;4.75;3.90;;;;;;;10.48;32.96;95276.34;5017589;28;20022;-79
2021/04/16 08:43:52;;;;;;;7.55;4.65;;;;;;;10.53;34.28;95281.69;5012694;28;20091;-81
2021/04/16 08:46:38;;;;;;;26.92;6.53;;;;;;;10.74;33.98;95265.63;5020855;28;20040;-81
2021/04/16 08:49:11;;;;;;;16.48;6.30;;;;;;;10.96;33.01;95260.69;5013759;28;20219;-80
2021/04/16 08:51:38;;;;;;;4.63;4.18;;;;;;;11.08;30.34;95250.31;5004929;28;20037;-80
2021/04/16 08:54:09;;;;;;;4.80;4.40;;;;;;;11.08;31.16;95250.31;5011066;28;20056;-81
2021/04/16 08:56:39;;;;;;;9.30;3.42;;;;;;;11.21;31.43;95254.50;4997846;28;20036;-81
2021/04/16 08:59:10;;;;;;;13.90;3.78;;;;;;;11.17;30.29;95248.97;4997818;28;20025;-80
2021/04/16 09:01:36;;;;;;;9.02;3.88;;;;;;;11.03;30.96;95242.38;5009452;28;20034;-80
2021/04/16 09:04:22;;;;;;;7.93;4.50;;;;;;;10.84;29.37;95239.03;4997299;28;20059;-81
2021/04/16 09:06:51;;;;;;;4.82;4.32;;;;;;;10.75;31.69;95222.19;5020257;28;20261;-81
2021/04/16 09:09:39;;;;;;;8.35;4.53;;;;;;;10.85;30.67;95232.03;4987364;28;20033;-81
2021/04/16 09:12:05;;;;;;;10.38;7.80;;;;;;;11.04;33.35;95228.34;5017941;28;20029;-81
2021/04/16 09:14:32;;;;;;;5.10;4.30;;;;;;;11.14;30.19;95210.38;5018425;28;20037;-81
2021/04/16 09:16:59;;;;;;;7.50;4.60;;;;;;;10.99;31.47;95215.22;5037059;28;20029;-81
2021/04/16 09:19:28;;;;;;;15.40;4.45;;;;;;;10.94;30.13;95212.50;5002532;28;20101;-80
2021/04/16 09:22:02;;;;;;;5.47;4.18;;;;;;;10.61;30.54;95202.59;5036213;28;20049;-81
2021/04/16 09:24:59;;;;;;;6.25;4.50;;;;;;;10.62;32.28;95207.56;5037451;28;20030;-81
2021/04/16 09:27:25;;;;;;;13.18;4.88;;;;;;;10.63;31.90;95201.34;5023029;28;20032;-80
2021/04/16 09:29:50;;;;;;;9.05;5.05;;;;;;;10.53;31.85;95201.06;5036349;28;20065;-80
2021/04/16 09:32:41;;;;;;;5.20;4.18;;;;;;;10.15;32.78;95204.75;5035825;28;20038;-80
2021/04/16 09:35:19;;;;;;;6.45;4.53;;;;;;;10.08;33.09;95198.03;5016890;28;20497;-80
2021/04/16 09:38:09;;;;;;;5.25;4.15;;;;;;;10.09;34.21;95197.84;5036469;28;20048;-80
2021/04/16 09:45:37;;;;;;;4.90;4.38;;;;;;;10.47;30.87;95194.16;5110965;22;20563;-82
2021/04/16 09:48:05;;;;;;;10.32;4.45;;;;;;;10.16;32.44;95180.34;5047825;28;20041;-83
2021/04/16 09:50:38;;;;;;;8.02;4.70;;;;;;;10.31;33.45;95181.78;5003187;28;20464;-80
2021/04/16 09:53:28;;;;;;;8.90;4.70;;;;;;;10.13;30.92;95191.19;5002770;28;20124;-80
2021/04/16 09:55:57;;;;;;;12.38;4.85;;;;;;;9.98;32.43;95188.16;5018112;28;20044;-81
2021/04/16 09:58:38;;;;;;;11.02;5.60;;;;;;;10.15;32.70;95178.75;5018679;28;20049;-82
2021/04/16 10:01:15;;;;;;;6.90;4.50;;;;;;;10.18;31.19;95193.13;5035894;28;20108;-81
2021/04/16 10:03:56;;;;;;;5.10;4.50;;;;;;;9.97;32.60;95167.59;5018741;28;20509;-81
2021/04/16 10:06:38;;;;;;;5.05;4.10;;;;;;;9.70;31.22;95164.53;5016932;28;20033;-81
2021/04/16 10:09:16;;;;;;;16.30;4.80;;;;;;;9.23;33.54;95159.81;5019602;28;20030;-81
2021/04/16 10:11:53;;;;;;;8.63;4.18;;;;;;;9.38;33.51;95175.03;5018239;28;20319;-80
2021/04/16 10:14:37;;;;;;;4.43;4.03;;;;;;;9.57;33.12;95168.84;5036573;28;20438;-81
2021/04/16 10:17:11;;;;;;;5.53;4.55;;;;;;;9.69;32.52;95170.72;5018885;28;20123;-78
2021/04/16 10:19:44;;;;;;;8.52;3.97;;;;;;;9.79;32.81;95168.44;5018691;28;20029;-79
2021/04/16 10:22:28;;;;;;;7.35;4.53;;;;;;;9.55;33.27;95163.06;5039228;28;20120;-80
2021/04/16 10:45:18;;;;;;;5.55;4.15;;;;;;;10.83;30.98;95136.81;5008074;28;20041;-81
2021/04/16 12:40:05;;;;;;;5.28;3.80;;;;;;;10.89;32.09;95038.84;5148067;22;20060;-80
2021/04/16 12:42:31;;;;;;;11.75;3.92;;;;;;;11.12;30.88;95053.66;5043475;28;20409;-81
2021/04/16 12:44:56;;;;;;;6.32;3.25;;;;;;;11.39;30.75;95044.31;5018627;28;20048;-81
2021/04/16 12:47:30;;;;;;;12.73;4.80;;;;;;;11.74;29.77;95035.59;5035228;28;20029;-82
2021/04/16 12:49:59;;;;;;;10.20;4.13;;;;;;;12.01;29.66;95041.81;5035412;28;20041;-80
2021/04/16 12:52:24;;;;;;;8.00;4.00;;;;;;;11.86;28.34;95023.31;5032212;28;20445;-81
2021/04/16 12:54:51;;;;;;;3.65;3.35;;;;;;;11.81;29.51;95020.63;5015132;28;20037;-81
2021/04/16 12:57:19;;;;;;;7.47;4.13;;;;;;;12.06;28.94;95027.31;5030865;28;20497;-82
2021/04/16 12:59:44;;;;;;;5.55;3.60;;;;;;;12.13;28.17;95023.53;4998686;28;20033;-81
2021/04/16 13:02:25;;;;;;;6.57;3.80;;;;;;;11.86;28.86;95017.31;5017938;28;20075;-81
2021/04/16 13:05:01;;;;;;;6.05;4.07;;;;;;;11.62;28.51;95021.81;5031426;28;20444;-82
2021/04/16 13:07:26;;;;;;;4.47;3.22;;;;;;;11.63;29.66;95033.81;5001719;28;20037;-80
2021/04/16 13:09:52;;;;;;;5.25;3.65;;;;;;;11.88;29.79;95031.72;5011202;28;20044;-81
2021/04/16 13:12:18;;;;;;;11.40;4.10;;;;;;;12.05;30.21;95021.31;5021476;28;20095;-79
2021/04/16 13:14:44;;;;;;;14.98;5.22;;;;;;;12.20;28.98;95024.19;5029346;28;20374;-79
2021/04/16 13:17:14;;;;;;;8.52;5.22;;;;;;;12.48;29.07;95019.88;5033296;22;20501;-80
2021/04/16 13:19:40;;;;;;;6.15;4.38;;;;;;;12.76;27.88;95014.56;5013178;28;20033;-83
2021/04/16 13:22:18;;;;;;;6.75;4.35;;;;;;;13.08;26.84;95025.19;5009861;28;20049;-83
2021/04/16 13:24:44;;;;;;;6.47;3.47;;;;;;;13.08;25.89;95011.34;5007513;28;20207;-84
2021/04/16 13:27:11;;;;;;;5.68;3.42;;;;;;;12.99;26.42;95018.00;4985442;28;20042;-84
2021/04/16 13:29:37;;;;;;;4.53;3.90;;;;;;;12.95;26.17;95020.31;5012817;28;20029;-85
2021/04/16 13:32:02;;;;;;;4.43;3.20;;;;;;;12.76;26.24;95016.38;4999031;28;20034;-84
2021/04/16 13:34:35;;;;;;;5.63;3.35;;;;;;;12.80;25.83;95017.47;4995479;28;20505;-82
2021/04/16 13:37:01;;;;;;;12.88;3.20;;;;;;;12.69;25.61;95020.97;5008685;28;20021;-84
2021/04/16 13:39:26;;;;;;;3.58;3.10;;;;;;;12.59;26.10;95022.41;5018658;28;20055;-84
2021/04/16 13:41:52;;;;;;;4.25;3.17;;;;;;;12.55;25.93;95025.75;5004923;28;20172;-81
2021/04/16 13:44:17;;;;;;;4.97;3.92;;;;;;;12.71;26.28;95016.31;4993873;28;20033;-82
2021/04/16 13:49:10;;;;;;;7.65;3.15;;;;;;;12.73;25.55;95006.44;5229691;22;20353;-82
2021/04/16 13:51:36;;;;;;;7.22;3.70;;;;;;;12.46;25.62;95016.72;5028880;28;20025;-82
2021/04/16 13:54:06;;;;;;;6.00;3.38;;;;;;;12.42;26.29;95013.03;5012792;28;20028;-84
2021/04/16 13:56:32;;;;;;;7.47;5.60;;;;;;;12.51;26.48;95007.16;5068360;28;20523;-83
2021/04/16 13:58:57;;;;;;;8.10;4.03;;;;;;;12.63;25.16;95005.25;5037492;28;20048;-85
2021/04/16 14:01:23;;;;;;;3.85;3.00;;;;;;;12.45;24.58;95012.53;5064549;28;20040;-84
2021/04/16 14:03:49;;;;;;;5.25;3.13;;;;;;;12.35;24.77;95010.56;5041083;28;20021;-84
2021/04/16 14:06:20;;;;;;;14.32;4.35;;;;;;;12.42;24.78;95010.41;5152314;23;20047;-83
2021/04/16 14:09:07;;;;;;;5.00;3.05;;;;;;;12.41;24.68;95020.06;5020596;28;20021;-82
2021/04/16 14:11:33;;;;;;;3.80;3.17;;;;;;;12.40;24.96;95017.69;5040064;28;20485;-83
2021/04/16 14:14:11;;;;;;;10.82;3.10;;;;;;;12.42;24.98;95016.44;5037332;28;20044;-83
2021/04/16 14:16:37;;;;;;;3.72;3.15;;;;;;;12.41;24.42;95017.44;5007987;28;20096;-84
2021/04/16 14:19:22;;;;;;;11.93;3.03;;;;;;;12.45;24.96;95005.50;5198550;22;20131;-84
2021/04/16 14:24:13;;;;;;;9.25;3.08;;;;;;;12.54;24.35;95009.31;5125818;22;20551;-83
2021/04/16 14:26:39;;;;;;;10.82;3.60;;;;;;;12.84;25.07;95008.13;5043585;28;20025;-83
2021/04/16 14:29:05;;;;;;;11.65;4.20;;;;;;;13.11;24.50;95001.19;5016465;28;20493;-84
2021/04/16 14:31:31;;;;;;;30.20;6.75;;;;;;;13.39;24.13;95005.47;5018221;28;20033;-85
2021/04/16 14:34:29;;;;;;;8.23;2.40;;;;;;;13.47;23.49;95001.63;5039740;22;20036;-84
2021/04/16 14:36:54;;;;;;;4.60;2.72;;;;;;;13.37;23.42;95012.78;5052220;28;20032;-83
2021/04/16 14:39:19;;;;;;;6.88;2.72;;;;;;;13.33;23.19;95013.47;5040939;28;20087;-78
2021/04/16 14:41:45;;;;;;;8.98;2.70;;;;;;;13.26;23.80;95010.28;5055796;22;20059;-80
2021/04/16 14:44:14;;;;;;;5.10;3.05;;;;;;;13.10;23.23;94994.38;5055088;22;20049;-78
2021/04/16 14:46:41;;;;;;;9.02;2.83;;;;;;;13.05;23.91;95004.78;5030312;28;20072;-79
2021/04/16 14:49:06;;;;;;;9.82;3.88;;;;;;;13.09;23.51;94994.63;5012695;28;20030;-79
2021/04/16 14:51:37;;;;;;;10.40;3.42;;;;;;;13.20;23.39;94997.16;5013332;28;20038;-81
2021/04/16 14:54:09;;;;;;;8.18;3.40;;;;;;;13.27;23.14;94999.59;5011228;28;20133;-81
2021/04/16 14:56:34;;;;;;;9.20;2.92;;;;;;;13.26;23.53;94998.00;4997604;28;20050;-79
2021/04/16 14:59:03;;;;;;;13.95;4.03;;;;;;;13.30;24.63;95006.13;5018020;28;20038;-82
2021/04/16 15:01:30;;;;;;;6.10;2.97;;;;;;;13.39;24.35;95002.06;5016278;28;20063;-82
2021/04/16 15:03:56;;;;;;;4.65;2.60;;;;;;;13.35;23.20;94999.16;5007867;28;20026;-79
2021/04/16 15:06:29;;;;;;;8.73;3.17;;;;;;;13.12;23.31;95004.59;4993997;28;20033;-79
2021/04/16 15:09:11;;;;;;;4.85;2.70;;;;;;;13.08;22.66;94993.84;4997518;28;20053;-80
2021/04/16 15:11:37;;;;;;;7.50;2.78;;;;;;;13.00;23.19;94994.25;4993471;28;20406;-81
2021/04/16 15:14:04;;;;;;;5.50;2.80;;;;;;;12.87;24.49;94984.19;5022163;22;20304;-80
2021/04/16 15:16:29;;;;;;;7.03;2.90;;;;;;;12.92;23.14;94992.06;5045623;28;20046;-81
2021/04/16 15:18:54;;;;;;;3.30;2.97;;;;;;;12.83;22.24;94993.50;5052211;28;20469;-81
2021/04/16 15:21:21;;;;;;;14.18;3.10;;;;;;;12.60;21.72;94982.25;5036791;28;20143;-80
2021/04/16 15:23:50;;;;;;;3.17;2.60;;;;;;;12.50;21.70;94986.53;5020562;28;20520;-81
2021/04/16 15:26:17;;;;;;;5.05;2.78;;;;;;;12.21;21.71;94981.44;5002505;28;20041;-81
2021/04/16 15:28:51;;;;;;;6.97;2.72;;;;;;;12.14;22.10;94987.81;5019391;28;20033;-78
2021/04/16 15:31:28;;;;;;;5.93;3.05;;;;;;;12.19;22.83;94977.47;5054302;28;20520;-80
2021/04/16 15:47:31;;;;;;;6.15;3.17;;;;;;;12.41;24.16;94975.72;5054079;28;20549;-80
2021/04/16 15:49:56;;;;;;;7.50;3.70;;;;;;;12.48;23.83;94968.50;5018920;28;20025;-82
2021/04/16 15:52:22;;;;;;;10.57;3.47;;;;;;;12.57;23.68;94971.53;5037143;28;20416;-82
2021/04/16 15:54:48;;;;;;;6.90;2.92;;;;;;;12.62;23.03;94969.75;5037699;28;20408;-81
2021/04/16 15:57:13;;;;;;;11.50;4.55;;;;;;;12.63;23.45;94966.13;5026962;28;20040;-80
2021/04/16 15:59:39;;;;;;;5.07;3.17;;;;;;;12.67;22.63;94961.19;5019923;28;20025;-80